Terminal Aerodrome Forecast
Issued by NWS Cleveland, OH

Home | Current Version | Previous Version | Text Only | Print | Product List | Glossary Off
Versions: 1 2 3 4 5 6 7 8 9 10 11 12 13 14 15 16 17 18 19 20 21 22 23 24 25 26 27 28 29

000
FTUS41 KCLE 310912 AAB
TAFCLE
TAF AMD
KCLE 310912Z 3109/0112 04008KT 5SM -SHRA BR OVC005
     FM311500 03015G22KT 2SM RA BR OVC003
     FM312300 03018G25KT 6SM -SHRA BR OVC006
     FM010100 03012KT 6SM BR VCSH OVC006=

USA.gov is the U.S. government's official web portal to all federal, state and local government web resources and services.